createdAt,value
2023-06-19T00:01:40.397Z,41.84
2023-06-19T00:04:07.078Z,43.54
2023-06-19T00:06:33.803Z,42.99
2023-06-19T00:09:00.344Z,43.19
2023-06-19T00:11:26.897Z,43.59
2023-06-19T00:13:53.559Z,43.81
2023-06-19T00:16:20.339Z,43.72
2023-06-19T00:18:47.445Z,43.87
2023-06-19T00:21:13.977Z,43.69
2023-06-19T00:23:40.558Z,44.09
2023-06-19T00:26:07.850Z,44.62
2023-06-19T00:28:35.639Z,43.46
2023-06-19T00:31:02.302Z,44.22
2023-06-19T00:33:30.244Z,43.70
2023-06-19T00:35:56.893Z,44.08
2023-06-19T00:38:24.802Z,45.25
2023-06-19T00:40:51.347Z,45.43
2023-06-19T00:43:18.457Z,44.74
2023-06-19T00:45:45.057Z,44.37
2023-06-19T00:48:11.820Z,44.30
2023-06-19T00:50:38.490Z,46.03
2023-06-19T00:53:05.686Z,44.89
2023-06-19T00:55:33.424Z,45.85
2023-06-19T00:58:01.666Z,45.30
2023-06-19T01:00:28.270Z,44.52
2023-06-19T01:02:57.277Z,45.04
2023-06-19T01:05:23.958Z,44.07
2023-06-19T01:08:18.851Z,43.44
2023-06-19T01:10:48.775Z,44.43
2023-06-19T01:13:23.623Z,44.61
2023-06-19T01:15:50.763Z,43.57
2023-06-19T01:18:17.794Z,44.26
2023-06-19T01:20:44.889Z,42.56
2023-06-19T01:23:12.386Z,42.02
2023-06-19T01:25:40.368Z,40.59
2023-06-19T01:28:10.785Z,41.49
2023-06-19T01:30:42.300Z,40.90
2023-06-19T01:33:28.905Z,41.17
2023-06-19T01:35:55.584Z,41.80
2023-06-19T01:38:22.342Z,41.01
2023-06-19T01:40:53.779Z,40.76
2023-06-19T01:43:20.653Z,41.95
2023-06-19T01:45:47.272Z,41.50
2023-06-19T01:48:15.354Z,41.85
2023-06-19T01:50:49.297Z,42.27
2023-06-19T01:53:16.237Z,42.31
2023-06-19T01:55:42.957Z,42.59
2023-06-19T01:58:09.673Z,42.79
2023-06-19T02:00:36.390Z,42.56
2023-06-19T02:03:03.247Z,42.71
2023-06-19T02:05:30.799Z,43.37
2023-06-19T02:07:57.541Z,43.57
2023-06-19T02:10:24.359Z,43.74
2023-06-19T02:12:51.119Z,43.19
2023-06-19T02:15:17.802Z,43.21
2023-06-19T02:17:45.286Z,43.56
2023-06-19T02:20:12.412Z,43.83
2023-06-19T02:22:39.716Z,43.77
2023-06-19T02:25:07.200Z,43.90
2023-06-19T02:27:33.628Z,44.67
2023-06-19T02:30:00.234Z,44.88
2023-06-19T02:32:27.655Z,44.38
2023-06-19T02:34:55.614Z,45.25
2023-06-19T02:37:22.192Z,45.06
2023-06-19T02:39:48.815Z,45.56
2023-06-19T02:42:15.642Z,45.02
2023-06-19T02:44:46.759Z,45.55
2023-06-19T02:47:13.303Z,45.83
2023-06-19T02:49:39.883Z,46.05
2023-06-19T02:52:07.138Z,47.31
2023-06-19T02:54:33.799Z,47.34
2023-06-19T02:57:01.021Z,46.88
2023-06-19T02:59:27.655Z,47.60
2023-06-19T03:01:54.218Z,47.45
2023-06-19T03:04:20.770Z,46.97
2023-06-19T03:06:47.309Z,47.42
2023-06-19T03:09:13.904Z,47.17
2023-06-19T03:11:41.043Z,47.36
2023-06-19T03:14:08.613Z,46.85
2023-06-19T03:16:36.056Z,47.56
2023-06-19T03:19:03.612Z,47.23
2023-06-19T03:21:30.179Z,48.43
2023-06-19T03:23:56.814Z,48.02
2023-06-19T03:26:25.920Z,47.63
2023-06-19T03:28:52.912Z,47.79
2023-06-19T03:31:20.260Z,48.20
2023-06-19T03:33:46.981Z,48.51
2023-06-19T03:36:14.128Z,48.68
2023-06-19T03:38:51.222Z,48.11
2023-06-19T03:41:21.341Z,48.04
2023-06-19T03:43:48.130Z,48.67
2023-06-19T03:46:15.346Z,48.70
2023-06-19T03:48:41.978Z,48.56
2023-06-19T03:51:08.556Z,48.29
2023-06-19T03:53:35.141Z,48.77
2023-06-19T03:56:02.155Z,48.33
2023-06-19T03:58:28.733Z,47.90
2023-06-19T04:00:55.328Z,48.01
2023-06-19T04:03:22.026Z,48.50
2023-06-19T04:05:48.765Z,48.27
2023-06-19T04:08:15.437Z,48.62
2023-06-19T04:10:43.716Z,48.67
2023-06-19T04:13:10.411Z,48.21
2023-06-19T04:15:38.350Z,47.58
2023-06-19T04:18:05.265Z,48.76
2023-06-19T04:20:31.992Z,47.39
2023-06-19T04:22:58.570Z,47.91
2023-06-19T04:25:25.151Z,48.54
2023-06-19T04:27:52.281Z,48.14
2023-06-19T04:30:22.107Z,47.98
2023-06-19T04:32:49.044Z,48.00
2023-06-19T04:35:15.638Z,47.84
2023-06-19T04:37:42.173Z,47.92
2023-06-19T04:40:09.164Z,48.42
2023-06-19T04:42:35.728Z,47.99
2023-06-19T04:45:02.318Z,48.33
2023-06-19T04:47:36.717Z,47.93
2023-06-19T04:50:16.680Z,48.46
2023-06-19T04:52:43.430Z,48.92
2023-06-19T04:55:11.360Z,48.80
2023-06-19T04:57:38.561Z,49.03
2023-06-19T05:00:11.465Z,49.07
2023-06-19T05:02:38.264Z,49.69
2023-06-19T05:05:05.376Z,49.10
2023-06-19T05:07:32.402Z,48.50
2023-06-19T05:10:01.864Z,49.56
2023-06-19T05:12:28.387Z,49.69
2023-06-19T05:14:54.959Z,48.96
2023-06-19T05:17:21.948Z,48.71
2023-06-19T05:19:48.929Z,48.97
2023-06-19T05:22:15.595Z,48.77
2023-06-19T05:24:42.246Z,49.25
2023-06-19T05:27:08.820Z,48.97
2023-06-19T05:29:35.466Z,48.77
2023-06-19T05:32:02.015Z,47.35
2023-06-19T05:34:28.740Z,47.20
2023-06-19T05:36:55.349Z,48.07
2023-06-19T05:39:21.910Z,47.92
2023-06-19T05:41:48.668Z,48.71
2023-06-19T05:44:17.676Z,47.92
2023-06-19T05:46:44.350Z,47.80
2023-06-19T05:49:11.183Z,47.69
2023-06-19T05:51:37.902Z,47.32
2023-06-19T05:54:05.051Z,47.40
2023-06-19T05:56:33.994Z,47.68
2023-06-19T05:59:02.185Z,48.31
2023-06-19T06:01:29.088Z,47.93
2023-06-19T06:03:56.384Z,47.16
2023-06-19T06:06:26.770Z,47.63
2023-06-19T06:08:53.634Z,47.30
2023-06-19T06:11:20.380Z,47.60
2023-06-19T06:13:47.037Z,47.82
2023-06-19T06:16:15.209Z,48.23
2023-06-19T06:18:41.957Z,48.52
2023-06-19T06:21:09.277Z,48.04
2023-06-19T06:23:35.864Z,47.76
2023-06-19T06:26:03.771Z,47.73
2023-06-19T06:28:30.769Z,48.19
2023-06-19T06:30:57.394Z,48.40
2023-06-19T06:33:24.677Z,47.73
2023-06-19T06:35:52.567Z,47.45
2023-06-19T06:38:19.264Z,47.75
2023-06-19T06:40:45.868Z,47.68
2023-06-19T06:43:12.652Z,47.18
2023-06-19T06:45:39.425Z,47.03
2023-06-19T06:48:08.104Z,47.81
2023-06-19T06:50:34.876Z,47.93
2023-06-19T06:53:01.671Z,47.68
2023-06-19T06:55:28.280Z,47.10
2023-06-19T06:57:54.938Z,47.25
2023-06-19T07:00:21.791Z,47.84
2023-06-19T07:02:51.293Z,47.14
2023-06-19T07:05:18.153Z,47.05
2023-06-19T07:07:44.718Z,47.03
2023-06-19T07:10:11.404Z,46.39
2023-06-19T07:12:46.284Z,45.68
2023-06-19T07:15:12.999Z,44.93
2023-06-19T07:17:39.637Z,44.22
2023-06-19T07:20:07.451Z,43.72
2023-06-19T07:22:34.140Z,44.72
2023-06-19T07:25:00.729Z,43.65
2023-06-19T07:27:28.663Z,43.87
2023-06-19T07:29:55.317Z,44.03
2023-06-19T07:32:21.919Z,43.54
2023-06-19T07:34:48.765Z,44.65
2023-06-19T07:37:18.997Z,44.77
2023-06-19T07:39:50.696Z,43.70
2023-06-19T07:42:18.918Z,43.08
2023-06-19T07:44:45.969Z,44.97
2023-06-19T07:47:12.995Z,44.12
2023-06-19T07:49:39.561Z,43.71
2023-06-19T07:52:06.642Z,43.93
2023-06-19T07:54:35.248Z,43.77
2023-06-19T07:57:02.043Z,43.75
2023-06-19T07:59:28.701Z,44.13
2023-06-19T08:01:55.314Z,42.82
2023-06-19T08:04:21.859Z,42.12
2023-06-19T08:06:48.411Z,42.08
2023-06-19T08:09:15.061Z,42.58
2023-06-19T08:11:41.674Z,43.27
2023-06-19T08:14:08.458Z,42.68
2023-06-19T08:16:35.067Z,41.91
2023-06-19T08:19:01.608Z,42.84
2023-06-19T08:21:28.515Z,41.83
2023-06-19T08:23:55.144Z,41.88
2023-06-19T08:26:21.738Z,40.76
2023-06-19T08:28:48.862Z,41.39
2023-06-19T08:31:15.516Z,41.12
2023-06-19T08:33:42.051Z,40.62
2023-06-19T08:36:08.654Z,40.36
2023-06-19T08:38:35.259Z,40.86
2023-06-19T08:41:01.802Z,40.99
2023-06-19T08:43:28.506Z,40.28
2023-06-19T08:46:07.192Z,41.21
2023-06-19T08:48:36.351Z,40.28
2023-06-19T08:51:05.241Z,40.31
2023-06-19T08:53:46.258Z,40.11
2023-06-19T08:56:12.917Z,40.67
2023-06-19T08:58:39.516Z,40.50
2023-06-19T09:01:06.358Z,40.68
2023-06-19T09:03:33.056Z,40.33
2023-06-19T09:06:08.415Z,40.17
2023-06-19T09:08:35.544Z,40.64
2023-06-19T09:11:03.360Z,40.62
2023-06-19T09:13:30.706Z,40.75
2023-06-19T09:16:05.189Z,40.10
2023-06-19T09:18:33.144Z,39.38
2023-06-19T09:20:59.936Z,40.05
2023-06-19T09:23:26.553Z,39.71
2023-06-19T09:25:58.893Z,38.55
2023-06-19T09:28:27.572Z,38.73
2023-06-19T09:31:04.060Z,39.17
2023-06-19T09:33:32.629Z,38.54
2023-06-19T09:36:00.558Z,38.26
2023-06-19T09:38:28.955Z,38.02
2023-06-19T09:40:57.774Z,37.46
2023-06-19T09:43:26.774Z,36.68
2023-06-19T09:45:56.786Z,36.46
2023-06-19T09:48:29.829Z,38.85
2023-06-19T09:51:01.698Z,36.92
2023-06-19T09:53:28.682Z,37.80
2023-06-19T09:55:57.141Z,37.26
2023-06-19T09:58:23.927Z,37.48
2023-06-19T10:00:51.843Z,36.35
2023-06-19T10:03:18.588Z,37.45
2023-06-19T10:05:45.588Z,36.51
2023-06-19T10:08:12.142Z,36.83
2023-06-19T10:10:48.811Z,37.47
2023-06-19T10:13:18.972Z,37.40
2023-06-19T10:15:46.210Z,36.60
2023-06-19T10:18:19.234Z,36.49
2023-06-19T10:20:47.819Z,36.64
2023-06-19T10:23:24.886Z,36.64
2023-06-19T10:25:54.777Z,37.59
2023-06-19T10:28:26.452Z,38.21
2023-06-19T10:30:57.470Z,37.97
2023-06-19T10:33:25.490Z,37.44
2023-06-19T10:35:52.270Z,37.50
2023-06-19T10:38:18.948Z,37.93
2023-06-19T10:40:47.405Z,37.72
2023-06-19T10:43:20.647Z,37.56
2023-06-19T10:45:47.336Z,38.00
2023-06-19T10:48:19.767Z,37.32
2023-06-19T10:50:46.326Z,38.05
2023-06-19T10:53:12.839Z,37.89
2023-06-19T10:55:39.387Z,38.63
2023-06-19T10:58:05.932Z,37.86
2023-06-19T11:00:34.872Z,38.80
2023-06-19T11:03:01.487Z,39.04
2023-06-19T11:05:28.727Z,39.38
2023-06-19T11:07:59.697Z,39.12
2023-06-19T11:10:29.222Z,38.76
2023-06-19T11:12:57.552Z,38.75
2023-06-19T11:15:36.576Z,38.19
2023-06-19T11:18:04.060Z,38.01
2023-06-19T11:20:31.451Z,38.33
2023-06-19T11:23:02.206Z,38.17
2023-06-19T11:25:38.984Z,38.46
2023-06-19T11:28:06.575Z,38.36
2023-06-19T11:30:34.772Z,39.34
2023-06-19T11:33:02.902Z,38.69
2023-06-19T11:35:37.297Z,38.37
2023-06-19T11:38:05.217Z,37.99
2023-06-19T11:40:40.595Z,38.25
2023-06-19T11:43:07.433Z,38.40
2023-06-19T11:45:34.003Z,38.36
2023-06-19T11:48:00.568Z,37.81
2023-06-19T11:50:30.432Z,38.14
2023-06-19T11:53:01.083Z,38.05
2023-06-19T11:55:27.795Z,38.43
2023-06-19T11:57:54.392Z,38.80
2023-06-19T12:00:21.102Z,38.56
2023-06-19T12:02:48.920Z,39.28
2023-06-19T12:05:15.629Z,38.22
2023-06-19T12:07:42.249Z,39.12
2023-06-19T12:10:11.272Z,38.05
2023-06-19T12:12:38.936Z,37.26
2023-06-19T12:15:06.720Z,38.32
2023-06-19T12:17:34.149Z,37.15
2023-06-19T12:20:01.942Z,37.51
2023-06-19T12:22:29.247Z,37.08
2023-06-19T12:24:55.668Z,37.39
2023-06-19T12:27:22.108Z,37.78
2023-06-19T12:29:49.355Z,37.48
2023-06-19T12:32:15.907Z,38.28
2023-06-19T12:34:47.401Z,38.42
2023-06-19T12:37:20.287Z,38.65
2023-06-19T12:39:47.383Z,37.99
2023-06-19T12:42:14.275Z,38.56
2023-06-19T12:44:41.310Z,38.06
2023-06-19T12:47:09.149Z,37.80
2023-06-19T12:49:35.834Z,36.48
2023-06-19T12:52:02.395Z,36.70
2023-06-19T12:54:29.479Z,35.71
2023-06-19T12:56:56.186Z,35.13
2023-06-19T12:59:22.948Z,36.48
2023-06-19T13:01:49.687Z,35.78
2023-06-19T13:04:16.794Z,34.79
2023-06-19T13:06:43.518Z,36.02
2023-06-19T13:09:10.406Z,35.98
2023-06-19T13:11:37.074Z,33.97
2023-06-19T13:14:03.746Z,35.91
2023-06-19T13:19:07.596Z,35.62
2023-06-19T13:21:36.459Z,36.27
2023-06-19T13:24:03.052Z,35.79
2023-06-19T13:26:29.626Z,35.64
2023-06-19T13:28:59.812Z,36.30
2023-06-19T13:31:26.787Z,35.79
2023-06-19T13:33:53.658Z,37.06
2023-06-19T13:36:20.679Z,36.20
2023-06-19T13:38:47.894Z,36.87
2023-06-19T13:41:14.661Z,36.30
2023-06-19T13:43:41.330Z,36.46
2023-06-19T13:46:08.125Z,35.89
2023-06-19T13:48:34.638Z,36.17
2023-06-19T13:51:01.834Z,35.29
2023-06-19T13:53:30.772Z,35.33
2023-06-19T13:55:57.533Z,36.25
2023-06-19T13:58:25.746Z,35.54
2023-06-19T14:00:52.419Z,36.47
2023-06-19T14:03:19.323Z,35.61
2023-06-19T14:05:46.267Z,35.80
2023-06-19T14:08:12.878Z,35.96
2023-06-19T14:10:39.619Z,35.35
2023-06-19T14:13:06.242Z,35.44
2023-06-19T14:15:32.816Z,36.21
2023-06-19T14:17:59.418Z,35.14
2023-06-19T14:20:26.279Z,35.01
2023-06-19T14:22:53.017Z,34.84
2023-06-19T14:25:19.630Z,35.34
2023-06-19T14:27:46.171Z,35.95
2023-06-19T14:30:12.858Z,35.51
2023-06-19T14:32:39.492Z,35.55
2023-06-19T14:35:06.765Z,35.71
2023-06-19T14:37:33.449Z,35.66
2023-06-19T14:40:00.096Z,35.00
2023-06-19T14:42:26.920Z,36.36
2023-06-19T14:44:53.461Z,34.88
2023-06-19T14:47:20.039Z,34.40
2023-06-19T14:49:46.900Z,34.60
2023-06-19T14:52:17.037Z,34.61
2023-06-19T14:54:43.828Z,34.37
2023-06-19T14:57:11.180Z,34.54
2023-06-19T14:59:37.846Z,34.51
2023-06-19T15:02:04.973Z,34.00
2023-06-19T15:04:32.419Z,32.47
2023-06-19T15:06:59.076Z,33.31
2023-06-19T15:09:27.010Z,33.25
2023-06-19T15:11:53.604Z,33.67
2023-06-19T15:14:20.711Z,34.98
2023-06-19T15:16:47.241Z,35.04
2023-06-19T15:19:13.942Z,34.30
2023-06-19T15:21:42.220Z,34.28
2023-06-19T15:24:09.237Z,34.45
2023-06-19T15:26:38.372Z,33.75
2023-06-19T15:29:06.667Z,33.16
2023-06-19T15:31:33.247Z,32.38
2023-06-19T15:33:59.953Z,33.41
2023-06-19T15:36:26.862Z,32.34
2023-06-19T15:38:53.424Z,32.72
2023-06-19T15:41:19.931Z,32.13
2023-06-19T15:43:46.522Z,32.79
2023-06-19T15:46:15.312Z,33.14
2023-06-19T15:48:43.042Z,34.62
2023-06-19T15:51:09.598Z,34.04
2023-06-19T15:53:38.612Z,33.88
2023-06-19T15:56:05.264Z,35.59
2023-06-19T15:58:31.881Z,35.32
2023-06-19T16:00:59.250Z,33.91
2023-06-19T16:03:27.162Z,34.82
2023-06-19T16:08:26.212Z,35.96
2023-06-19T16:10:52.854Z,35.07
2023-06-19T16:13:19.748Z,34.60
2023-06-19T16:15:46.464Z,35.34
2023-06-19T16:18:13.022Z,35.22
2023-06-19T16:20:39.762Z,35.69
2023-06-19T16:23:06.562Z,35.14
2023-06-19T16:25:33.127Z,35.77
2023-06-19T16:28:02.268Z,35.72
2023-06-19T16:30:29.892Z,35.91
2023-06-19T16:32:56.740Z,36.63
2023-06-19T16:35:23.683Z,36.13
2023-06-19T16:37:54.470Z,36.72
2023-06-19T16:40:22.527Z,37.29
2023-06-19T16:42:49.771Z,37.75
2023-06-19T16:45:16.460Z,39.15
2023-06-19T16:47:43.037Z,42.29
2023-06-19T16:50:09.913Z,41.01
2023-06-19T16:52:36.546Z,41.51
2023-06-19T16:55:03.296Z,40.06
2023-06-19T16:57:30.979Z,40.71
2023-06-19T16:59:57.890Z,40.68
2023-06-19T17:02:24.574Z,41.36
2023-06-19T17:04:51.517Z,41.21
2023-06-19T17:07:18.382Z,41.54
2023-06-19T17:09:47.038Z,42.85
2023-06-19T17:12:14.502Z,43.07
2023-06-19T17:14:42.618Z,43.61
2023-06-19T17:17:09.338Z,44.82
2023-06-19T17:19:36.299Z,44.79
2023-06-19T17:22:02.846Z,44.34
2023-06-19T17:24:29.485Z,44.74
2023-06-19T17:26:58.360Z,44.27
2023-06-19T17:29:27.532Z,43.84
2023-06-19T17:31:55.208Z,44.60
2023-06-19T17:34:21.789Z,43.50
2023-06-19T17:36:48.427Z,44.17
2023-06-19T17:39:15.694Z,44.28
2023-06-19T17:41:42.914Z,44.04
2023-06-19T17:44:09.725Z,44.83
2023-06-19T17:46:39.440Z,45.52
2023-06-19T17:49:06.815Z,45.13
2023-06-19T17:51:34.043Z,45.60
2023-06-19T17:54:04.936Z,46.67
2023-06-19T17:56:32.168Z,46.28
2023-06-19T17:58:58.778Z,46.62
2023-06-19T18:01:25.785Z,45.49
2023-06-19T18:03:52.937Z,46.27
2023-06-19T18:06:19.626Z,46.09
2023-06-19T18:08:46.289Z,46.56
2023-06-19T18:11:12.845Z,47.62
2023-06-19T18:13:40.089Z,47.47
2023-06-19T18:16:12.482Z,47.39
2023-06-19T18:18:40.144Z,47.08
2023-06-19T18:21:06.931Z,47.17
2023-06-19T18:23:33.993Z,47.69
2023-06-19T18:26:00.680Z,47.38
2023-06-19T18:28:27.208Z,47.36
2023-06-19T18:30:54.021Z,47.83
2023-06-19T18:33:20.634Z,47.60
2023-06-19T18:35:47.283Z,47.44
2023-06-19T18:38:14.337Z,47.57
2023-06-19T18:40:42.360Z,47.70
2023-06-19T18:43:09.114Z,48.31
2023-06-19T18:45:35.854Z,48.36
2023-06-19T18:48:02.664Z,48.37
2023-06-19T18:50:29.722Z,48.26
2023-06-19T18:52:56.296Z,48.25
2023-06-19T18:55:23.128Z,48.29
2023-06-19T18:57:49.824Z,48.72
2023-06-19T19:00:17.536Z,48.48
2023-06-19T19:02:44.397Z,48.74
2023-06-19T19:05:11.279Z,48.80
2023-06-19T19:07:38.005Z,48.31
2023-06-19T19:10:04.982Z,49.23
2023-06-19T19:12:31.572Z,48.91
2023-06-19T19:14:58.113Z,49.45
2023-06-19T19:17:24.768Z,48.90
2023-06-19T19:19:51.657Z,49.75
2023-06-19T19:22:18.202Z,49.83
2023-06-19T19:24:44.834Z,50.15
2023-06-19T19:27:11.509Z,50.35
2023-06-19T19:29:38.052Z,50.36
2023-06-19T19:32:04.905Z,50.29
2023-06-19T19:34:31.434Z,50.69
2023-06-19T19:36:58.023Z,51.13
2023-06-19T19:39:24.573Z,51.29
2023-06-19T19:41:51.137Z,51.37
2023-06-19T19:44:17.743Z,51.44
2023-06-19T19:46:44.450Z,51.89
2023-06-19T19:49:11.031Z,52.26
2023-06-19T19:51:37.603Z,52.27
2023-06-19T19:54:04.312Z,52.41
2023-06-19T19:56:30.923Z,52.38
2023-06-19T19:58:58.102Z,52.73
2023-06-19T20:01:24.698Z,52.72
2023-06-19T20:03:51.511Z,53.01
2023-06-19T20:06:18.344Z,52.90
2023-06-19T20:08:44.956Z,53.03
2023-06-19T20:11:15.224Z,52.83
2023-06-19T20:13:41.875Z,52.08
2023-06-19T20:16:10.284Z,52.57
2023-06-19T20:18:37.290Z,52.44
2023-06-19T20:21:04.071Z,52.49
2023-06-19T20:23:30.770Z,52.60
2023-06-19T20:25:57.365Z,52.61
2023-06-19T20:28:24.441Z,52.68
2023-06-19T20:30:51.155Z,52.71
2023-06-19T20:33:17.737Z,52.65
2023-06-19T20:35:47.737Z,53.16
2023-06-19T20:38:14.468Z,52.99
2023-06-19T20:40:41.033Z,53.55
2023-06-19T20:43:08.757Z,53.40
2023-06-19T20:45:35.325Z,53.64
2023-06-19T20:48:03.617Z,53.27
2023-06-19T20:50:30.244Z,53.70
2023-06-19T20:52:57.475Z,53.99
2023-06-19T20:55:24.062Z,53.98
2023-06-19T20:57:50.674Z,54.19
2023-06-19T21:00:17.982Z,54.75
2023-06-19T21:02:45.069Z,54.99
2023-06-19T21:05:18.043Z,55.26
2023-06-19T21:07:45.806Z,55.40
2023-06-19T21:10:12.819Z,55.35
2023-06-19T21:12:39.331Z,55.61
2023-06-19T21:15:06.335Z,55.82
2023-06-19T21:17:32.941Z,55.80
2023-06-19T21:19:59.625Z,55.61
2023-06-19T21:22:26.160Z,55.27
2023-06-19T21:24:52.732Z,55.74
2023-06-19T21:27:19.265Z,55.83
2023-06-19T21:29:45.781Z,55.85
2023-06-19T21:32:12.712Z,56.08
2023-06-19T21:34:39.235Z,56.01
2023-06-19T21:37:06.114Z,56.09
2023-06-19T21:39:32.620Z,56.09
2023-06-19T21:41:59.200Z,56.15
2023-06-19T21:44:25.762Z,55.94
2023-06-19T21:46:52.361Z,55.35
2023-06-19T21:49:18.960Z,55.41
2023-06-19T21:51:45.497Z,55.52
2023-06-19T21:54:12.111Z,55.44
2023-06-19T21:56:38.896Z,55.26
2023-06-19T21:59:05.452Z,55.11
2023-06-19T22:01:32.018Z,55.32
2023-06-19T22:03:58.860Z,54.58
2023-06-19T22:06:25.456Z,54.85
2023-06-19T22:08:51.993Z,54.79
2023-06-19T22:11:18.582Z,54.95
2023-06-19T22:13:45.122Z,54.97
2023-06-19T22:16:11.779Z,55.31
2023-06-19T22:18:38.397Z,55.21
2023-06-19T22:21:05.085Z,55.09
2023-06-19T22:23:31.673Z,55.72
2023-06-19T22:25:58.251Z,55.68
2023-06-19T22:28:24.927Z,56.39
2023-06-19T22:30:51.461Z,56.45
2023-06-19T22:33:18.224Z,56.75
2023-06-19T22:35:44.766Z,57.08
2023-06-19T22:38:11.376Z,56.88
2023-06-19T22:40:38.221Z,57.05
2023-06-19T22:43:04.735Z,57.14
2023-06-19T22:45:31.298Z,57.61
2023-06-19T22:47:57.970Z,57.41
2023-06-19T22:50:26.605Z,56.94
2023-06-19T22:52:53.466Z,57.42
2023-06-19T22:55:21.389Z,57.92
2023-06-19T22:57:48.301Z,57.65
2023-06-19T23:00:15.325Z,57.78
2023-06-19T23:02:43.099Z,58.07
2023-06-19T23:05:11.002Z,57.71
2023-06-19T23:07:38.171Z,58.52
2023-06-19T23:10:05.283Z,57.79
2023-06-19T23:12:31.952Z,57.93
2023-06-19T23:14:58.528Z,57.88
2023-06-19T23:17:25.104Z,58.08
2023-06-19T23:19:52.129Z,58.03
2023-06-19T23:22:18.760Z,57.99
2023-06-19T23:24:45.369Z,57.86
2023-06-19T23:27:11.904Z,58.26
2023-06-19T23:29:38.496Z,57.80
2023-06-19T23:32:05.833Z,57.91
2023-06-19T23:34:35.436Z,57.89
2023-06-19T23:37:02.535Z,57.80
2023-06-19T23:39:29.207Z,58.58
2023-06-19T23:41:55.779Z,57.96
2023-06-19T23:44:22.307Z,58.04
2023-06-19T23:46:48.933Z,58.30
2023-06-19T23:49:15.695Z,58.52
2023-06-19T23:51:42.416Z,58.43
2023-06-19T23:54:08.966Z,59.13
2023-06-19T23:56:35.510Z,58.82
2023-06-19T23:59:02.064Z,59.50
